createdAt,value
2018-12-30T00:00:48.184Z,4.70
2018-12-30T00:03:17.989Z,6.30
2018-12-30T00:05:48.119Z,6.60
2018-12-30T00:08:18.228Z,11.87
2018-12-30T00:10:49.052Z,10.37
2018-12-30T00:13:18.960Z,6.97
2018-12-30T00:15:48.791Z,7.17
2018-12-30T00:18:18.734Z,7.47
2018-12-30T00:20:48.570Z,6.43
2018-12-30T00:23:18.883Z,7.47
2018-12-30T00:25:48.721Z,8.10
2018-12-30T00:28:18.625Z,7.20
2018-12-30T00:30:48.455Z,8.17
2018-12-30T00:33:18.365Z,7.70
2018-12-30T00:35:48.491Z,9.17
2018-12-30T00:38:18.404Z,8.10
2018-12-30T00:40:48.318Z,9.13
2018-12-30T00:43:18.151Z,9.53
2018-12-30T00:45:48.062Z,9.33
2018-12-30T00:48:18.042Z,10.13
2018-12-30T00:50:47.935Z,8.43
2018-12-30T00:53:17.786Z,9.47
2018-12-30T00:55:47.696Z,9.30
2018-12-30T00:58:17.602Z,8.77
2018-12-30T01:00:47.418Z,9.73
2018-12-30T01:03:17.313Z,11.53
2018-12-30T01:05:47.156Z,13.97
2018-12-30T01:08:16.992Z,9.83
2018-12-30T01:10:46.890Z,10.07
2018-12-30T01:13:16.643Z,9.47
2018-12-30T01:15:46.555Z,14.30
2018-12-30T01:18:16.459Z,10.97
2018-12-30T01:20:46.367Z,11.33
2018-12-30T01:23:16.183Z,10.60
2018-12-30T01:25:46.024Z,13.13
2018-12-30T01:28:15.920Z,14.10
2018-12-30T01:30:45.828Z,10.93
2018-12-30T01:33:15.738Z,11.13
2018-12-30T01:35:45.570Z,13.77
2018-12-30T01:38:15.483Z,12.17
2018-12-30T01:40:45.320Z,13.77
2018-12-30T01:43:15.237Z,15.40
2018-12-30T01:45:45.071Z,14.17
2018-12-30T01:48:14.984Z,14.47
2018-12-30T01:50:44.820Z,12.57
2018-12-30T01:53:14.760Z,12.60
2018-12-30T01:55:44.595Z,14.70
2018-12-30T01:58:14.529Z,14.13
2018-12-30T02:00:44.441Z,14.70
2018-12-30T02:03:14.344Z,14.97
2018-12-30T02:05:44.179Z,14.83
2018-12-30T02:08:13.997Z,12.63
2018-12-30T02:10:43.831Z,14.50
2018-12-30T02:13:13.644Z,14.47
2018-12-30T02:15:44.551Z,13.97
2018-12-30T02:18:14.386Z,15.20
2018-12-30T02:20:44.216Z,14.33
2018-12-30T02:23:14.148Z,15.77
2018-12-30T02:25:44.087Z,15.67
2018-12-30T02:28:14.604Z,14.40
2018-12-30T02:30:44.564Z,11.90
2018-12-30T02:33:14.474Z,14.10
2018-12-30T02:35:44.333Z,14.67
2018-12-30T02:38:14.227Z,14.47
2018-12-30T02:40:44.072Z,16.00
2018-12-30T02:43:13.967Z,14.20
2018-12-30T02:45:43.713Z,17.60
2018-12-30T02:48:13.530Z,16.40
2018-12-30T02:50:43.776Z,15.03
2018-12-30T02:53:13.679Z,17.13
2018-12-30T02:55:44.611Z,17.10
2018-12-30T02:58:14.463Z,14.10
2018-12-30T03:00:44.399Z,16.30
2018-12-30T03:03:14.203Z,21.07
2018-12-30T03:05:44.110Z,14.40
2018-12-30T03:08:13.953Z,15.43
2018-12-30T03:10:43.861Z,14.70
2018-12-30T03:13:14.209Z,15.50
2018-12-30T03:15:44.015Z,17.00
2018-12-30T03:18:13.764Z,16.47
2018-12-30T03:20:43.667Z,13.97
2018-12-30T03:23:13.527Z,15.90
2018-12-30T03:25:43.348Z,12.60
2018-12-30T03:28:13.084Z,13.93
2018-12-30T03:30:42.917Z,15.70
2018-12-30T03:33:12.649Z,12.60
2018-12-30T03:35:42.456Z,14.73
2018-12-30T03:38:12.369Z,17.43
2018-12-30T03:40:42.177Z,17.83
2018-12-30T03:43:12.012Z,19.87
2018-12-30T03:45:41.823Z,19.13
2018-12-30T03:48:11.556Z,18.90
2018-12-30T03:50:41.380Z,20.30
2018-12-30T03:53:12.130Z,23.73
2018-12-30T03:55:41.947Z,17.27
2018-12-30T03:58:11.693Z,19.77
2018-12-30T04:00:41.524Z,15.93
2018-12-30T04:03:11.338Z,21.97
2018-12-30T04:05:41.073Z,15.80
2018-12-30T04:08:10.912Z,13.77
2018-12-30T04:10:40.653Z,11.97
2018-12-30T04:13:10.464Z,12.77
2018-12-30T04:15:41.197Z,13.30
2018-12-30T04:18:11.008Z,14.13
2018-12-30T04:20:40.784Z,14.97
2018-12-30T04:23:10.578Z,15.27
2018-12-30T04:25:40.318Z,16.63
2018-12-30T04:28:10.133Z,15.40
2018-12-30T04:30:39.955Z,15.23
2018-12-30T04:33:09.760Z,15.60
2018-12-30T04:35:39.498Z,17.93
2018-12-30T04:38:09.350Z,17.37
2018-12-30T04:40:39.083Z,17.17
2018-12-30T04:43:08.890Z,14.53
2018-12-30T04:45:38.626Z,17.43
2018-12-30T04:48:08.432Z,17.00
2018-12-30T04:50:39.856Z,17.30
2018-12-30T04:53:09.668Z,16.27
2018-12-30T04:55:39.456Z,20.93
2018-12-30T04:58:09.195Z,15.00
2018-12-30T05:00:39.000Z,17.00
2018-12-30T05:03:08.800Z,17.20
2018-12-30T05:05:38.615Z,17.70
2018-12-30T05:08:08.388Z,16.40
2018-12-30T05:10:38.216Z,15.73
2018-12-30T05:13:08.015Z,16.73
2018-12-30T05:15:37.751Z,15.30
2018-12-30T05:18:07.568Z,14.37
2018-12-30T05:20:37.377Z,18.43
2018-12-30T05:23:07.143Z,15.43
2018-12-30T05:25:37.015Z,14.87
2018-12-30T05:28:06.794Z,16.03
2018-12-30T05:30:36.597Z,14.10
2018-12-30T05:33:06.409Z,15.33
2018-12-30T05:35:36.145Z,16.40
2018-12-30T05:38:05.958Z,18.00
2018-12-30T05:40:35.706Z,17.73
2018-12-30T05:43:05.552Z,15.00
2018-12-30T05:45:35.397Z,15.67
2018-12-30T05:48:05.290Z,14.47
2018-12-30T05:50:35.029Z,16.17
2018-12-30T05:53:04.834Z,14.13
2018-12-30T05:55:34.645Z,15.00
2018-12-30T05:58:04.381Z,15.27
2018-12-30T06:00:34.187Z,15.53
2018-12-30T06:03:03.919Z,14.90
2018-12-30T06:05:33.723Z,12.77
2018-12-30T06:08:03.458Z,15.17
2018-12-30T06:10:33.275Z,18.17
2018-12-30T06:13:03.007Z,15.67
2018-12-30T06:15:32.858Z,17.23
2018-12-30T06:18:02.596Z,15.37
2018-12-30T06:20:32.408Z,15.77
2018-12-30T06:23:02.158Z,16.07
2018-12-30T06:25:31.976Z,15.80
2018-12-30T06:28:01.779Z,15.67
2018-12-30T06:30:31.519Z,13.87
2018-12-30T06:33:01.332Z,14.63
2018-12-30T06:35:31.067Z,16.13
2018-12-30T06:38:00.879Z,12.50
2018-12-30T06:40:30.615Z,19.63
2018-12-30T06:43:00.423Z,15.00
2018-12-30T06:45:30.160Z,15.20
2018-12-30T06:48:00.031Z,13.60
2018-12-30T06:50:29.763Z,14.77
2018-12-30T06:52:59.583Z,15.10
2018-12-30T06:55:29.320Z,15.43
2018-12-30T06:57:59.123Z,17.20
2018-12-30T07:00:30.149Z,15.70
2018-12-30T07:02:59.958Z,17.00
2018-12-30T07:05:29.765Z,17.77
2018-12-30T07:07:59.500Z,15.37
2018-12-30T07:10:29.309Z,13.63
2018-12-30T07:12:59.120Z,16.50
2018-12-30T07:15:28.860Z,17.77
2018-12-30T07:17:58.699Z,15.97
2018-12-30T07:20:28.533Z,14.13
2018-12-30T07:23:05.594Z,15.33
2018-12-30T07:25:29.811Z,20.27
2018-12-30T07:27:59.637Z,14.40
2018-12-30T07:30:29.452Z,17.97
2018-12-30T07:32:59.186Z,17.50
2018-12-30T07:35:29.002Z,16.10
2018-12-30T07:37:58.777Z,23.33
2018-12-30T07:40:28.583Z,15.97
2018-12-30T07:42:58.310Z,16.33
2018-12-30T07:45:28.119Z,20.93
2018-12-30T07:47:57.853Z,19.87
2018-12-30T07:50:27.692Z,25.53
2018-12-30T07:52:57.506Z,19.63
2018-12-30T07:55:27.315Z,22.47
2018-12-30T07:57:57.055Z,21.73
2018-12-30T08:00:26.867Z,21.73
2018-12-30T08:02:56.598Z,19.10
2018-12-30T08:05:26.549Z,20.93
2018-12-30T08:07:56.356Z,17.97
2018-12-30T08:10:26.204Z,15.73
2018-12-30T08:12:56.038Z,12.83
2018-12-30T08:15:25.838Z,19.87
2018-12-30T08:17:55.645Z,16.73
2018-12-30T08:20:25.375Z,18.37
2018-12-30T08:22:55.204Z,14.73
2018-12-30T08:25:24.990Z,15.57
2018-12-30T08:27:54.846Z,16.43
2018-12-30T08:30:24.579Z,14.23
2018-12-30T08:32:54.383Z,16.47
2018-12-30T08:35:24.190Z,20.07
2018-12-30T08:37:53.922Z,16.73
2018-12-30T08:40:23.730Z,13.90
2018-12-30T08:42:53.508Z,16.77
2018-12-30T08:45:23.310Z,20.37
2018-12-30T08:47:53.042Z,19.40
2018-12-30T08:50:22.852Z,14.37
2018-12-30T08:52:52.582Z,15.77
2018-12-30T08:55:23.791Z,12.70
2018-12-30T08:57:53.523Z,20.57
2018-12-30T09:00:23.407Z,16.70
2018-12-30T09:02:53.146Z,13.47
2018-12-30T09:05:25.739Z,18.03
2018-12-30T09:07:55.743Z,14.37
2018-12-30T09:10:25.652Z,14.33
2018-12-30T09:12:55.432Z,16.00
2018-12-30T09:15:25.339Z,15.33
2018-12-30T09:17:55.155Z,14.00
2018-12-30T09:20:24.896Z,18.97
2018-12-30T09:22:54.704Z,18.83
2018-12-30T09:25:25.445Z,17.53
2018-12-30T09:27:55.515Z,19.17
2018-12-30T09:30:25.988Z,19.07
2018-12-30T09:32:56.971Z,25.00
2018-12-30T09:35:28.154Z,17.13
2018-12-30T09:37:58.294Z,17.63
2018-12-30T09:40:28.016Z,15.90
2018-12-30T09:42:57.833Z,16.07
2018-12-30T09:45:28.312Z,13.53
2018-12-30T09:47:58.217Z,16.70
2018-12-30T09:50:28.137Z,20.00
2018-12-30T09:52:57.949Z,16.17
2018-12-30T09:55:29.046Z,16.93
2018-12-30T09:57:58.766Z,18.93
2018-12-30T10:00:28.613Z,13.60
2018-12-30T10:02:58.368Z,16.60
2018-12-30T10:05:28.612Z,14.93
2018-12-30T10:07:58.572Z,15.03
2018-12-30T10:10:28.361Z,16.33
2018-12-30T10:12:58.163Z,15.47
2018-12-30T10:15:28.284Z,15.60
2018-12-30T10:17:58.640Z,16.30
2018-12-30T10:20:28.520Z,17.77
2018-12-30T10:22:58.904Z,13.13
2018-12-30T10:25:28.745Z,15.03
2018-12-30T10:27:58.643Z,13.10
2018-12-30T10:30:28.373Z,12.60
2018-12-30T10:32:58.195Z,14.70
2018-12-30T10:35:28.804Z,17.97
2018-12-30T10:37:59.783Z,16.67
2018-12-30T10:40:29.766Z,14.13
2018-12-30T10:42:59.610Z,18.17
2018-12-30T10:45:31.455Z,13.87
2018-12-30T10:48:01.633Z,13.53
2018-12-30T10:50:32.774Z,17.27
2018-12-30T10:53:02.504Z,12.33
2018-12-30T10:55:34.814Z,14.43
2018-12-30T10:58:04.608Z,14.67
2018-12-30T11:00:34.517Z,12.87
2018-12-30T11:03:04.306Z,14.77
2018-12-30T11:05:34.360Z,16.57
2018-12-30T11:08:04.159Z,12.07
2018-12-30T11:10:33.934Z,14.13
2018-12-30T11:13:03.733Z,17.90
2018-12-30T11:15:36.281Z,18.17
2018-12-30T11:18:06.805Z,18.10
2018-12-30T11:20:36.740Z,15.43
2018-12-30T11:23:06.547Z,14.40
2018-12-30T11:25:36.342Z,15.27
2018-12-30T11:28:06.161Z,18.53
2018-12-30T11:30:35.906Z,23.10
2018-12-30T11:33:05.711Z,20.30
2018-12-30T11:35:35.507Z,22.03
2018-12-30T11:38:05.317Z,16.27
2018-12-30T11:40:35.049Z,16.07
2018-12-30T11:43:04.882Z,14.10
2018-12-30T11:45:34.692Z,15.03
2018-12-30T11:48:04.434Z,17.33
2018-12-30T11:50:34.231Z,12.77
2018-12-30T11:53:04.022Z,12.40
2018-12-30T11:55:33.772Z,12.13
2018-12-30T11:58:04.974Z,15.60
2018-12-30T12:00:34.692Z,12.77
2018-12-30T12:03:04.477Z,14.77
2018-12-30T12:05:34.273Z,10.43
2018-12-30T12:08:04.085Z,12.07
2018-12-30T12:10:33.821Z,11.97
2018-12-30T12:13:03.628Z,11.60
2018-12-30T12:15:33.377Z,10.23
2018-12-30T12:18:03.161Z,12.70
2018-12-30T12:20:32.960Z,12.87
2018-12-30T12:23:03.736Z,10.87
2018-12-30T12:25:34.353Z,14.30
2018-12-30T12:28:05.654Z,12.10
2018-12-30T12:30:35.437Z,12.90
2018-12-30T12:33:06.239Z,12.57
2018-12-30T12:35:35.972Z,13.23
2018-12-30T12:38:05.764Z,9.60
2018-12-30T12:40:35.562Z,11.23
2018-12-30T12:43:05.360Z,12.23
2018-12-30T12:45:35.092Z,8.27
2018-12-30T12:48:04.880Z,10.27
2018-12-30T12:50:34.607Z,11.43
2018-12-30T12:53:04.435Z,9.27
2018-12-30T12:55:34.229Z,10.63
2018-12-30T12:58:04.005Z,12.10
2018-12-30T13:00:33.802Z,18.73
2018-12-30T13:03:03.525Z,17.97
2018-12-30T13:05:34.335Z,19.73
2018-12-30T13:08:04.130Z,22.33
2018-12-30T13:10:33.885Z,23.30
2018-12-30T13:13:03.690Z,22.33
2018-12-30T13:15:33.425Z,25.07
2018-12-30T13:18:03.227Z,22.70
2018-12-30T13:20:33.026Z,31.47
2018-12-30T13:23:02.761Z,23.27
2018-12-30T13:25:32.611Z,25.80
2018-12-30T13:28:02.462Z,22.63
2018-12-30T13:30:32.258Z,22.97
2018-12-30T13:33:01.994Z,22.53
2018-12-30T13:35:31.793Z,24.13
2018-12-30T13:38:01.518Z,22.97
2018-12-30T13:40:31.314Z,24.77
2018-12-30T13:43:01.130Z,23.60
2018-12-30T13:45:32.267Z,23.50
2018-12-30T13:48:02.344Z,23.33
2018-12-30T13:50:32.143Z,24.50
2018-12-30T13:53:01.875Z,24.53
2018-12-30T13:55:31.708Z,25.83
2018-12-30T13:58:01.442Z,23.43
2018-12-30T14:00:31.237Z,23.93
2018-12-30T14:03:00.969Z,26.17
2018-12-30T14:05:30.761Z,24.20
2018-12-30T14:08:00.590Z,24.23
2018-12-30T14:10:30.315Z,19.73
2018-12-30T14:13:00.142Z,25.60
2018-12-30T14:15:29.885Z,24.27
2018-12-30T14:17:59.705Z,24.40
2018-12-30T14:20:29.425Z,24.57
2018-12-30T14:22:59.249Z,22.77
2018-12-30T14:25:28.975Z,22.23
2018-12-30T14:27:58.881Z,28.13
2018-12-30T14:30:28.813Z,26.03
2018-12-30T14:32:58.635Z,23.50
2018-12-30T14:35:28.363Z,26.37
2018-12-30T14:37:58.157Z,23.13
2018-12-30T14:40:27.957Z,26.93
2018-12-30T14:42:57.725Z,20.43
2018-12-30T14:45:27.521Z,19.93
2018-12-30T14:47:57.342Z,21.00
2018-12-30T14:50:27.068Z,25.27
2018-12-30T14:52:56.857Z,21.07
2018-12-30T14:55:26.585Z,21.80
2018-12-30T14:57:56.368Z,22.57
2018-12-30T15:00:26.208Z,25.40
2018-12-30T15:02:55.938Z,23.13
2018-12-30T15:05:25.766Z,22.43
2018-12-30T15:07:55.498Z,21.10
2018-12-30T15:10:25.406Z,22.37
2018-12-30T15:12:55.138Z,22.13
2018-12-30T15:15:24.945Z,22.57
2018-12-30T15:17:54.752Z,27.47
2018-12-30T15:20:24.478Z,29.47
2018-12-30T15:22:54.281Z,33.53
2018-12-30T15:25:24.073Z,25.23
2018-12-30T15:27:53.897Z,27.57
2018-12-30T15:30:23.705Z,27.93
2018-12-30T15:32:54.469Z,29.37
2018-12-30T15:35:24.264Z,26.33
2018-12-30T15:37:54.061Z,26.33
2018-12-30T15:40:23.812Z,28.47
2018-12-30T15:42:53.613Z,29.93
2018-12-30T15:45:23.435Z,32.07
2018-12-30T15:47:53.157Z,30.27
2018-12-30T15:50:22.951Z,32.90
2018-12-30T15:52:52.758Z,33.40
2018-12-30T15:55:22.484Z,27.40
2018-12-30T15:57:52.289Z,31.40
2018-12-30T16:00:22.033Z,30.10
2018-12-30T16:02:51.834Z,32.47
2018-12-30T16:05:21.674Z,30.33
2018-12-30T16:07:51.424Z,29.80
2018-12-30T16:10:21.230Z,33.47
2018-12-30T16:12:51.026Z,33.07
2018-12-30T16:15:20.761Z,29.27
2018-12-30T16:17:50.569Z,32.10
2018-12-30T16:20:20.308Z,27.30
2018-12-30T16:22:50.042Z,32.13
2018-12-30T16:25:26.982Z,32.10
2018-12-30T16:27:51.285Z,29.20
2018-12-30T16:30:21.014Z,31.53
2018-12-30T16:32:50.814Z,30.07
2018-12-30T16:35:20.650Z,30.70
2018-12-30T16:37:50.470Z,27.30
2018-12-30T16:40:21.946Z,34.57
2018-12-30T16:42:51.677Z,25.57
2018-12-30T16:45:21.504Z,25.80
2018-12-30T16:47:51.220Z,30.13
2018-12-30T16:50:21.056Z,26.00
2018-12-30T16:52:50.776Z,33.60
2018-12-30T16:55:20.501Z,32.67
2018-12-30T16:57:50.343Z,32.93
2018-12-30T17:00:20.169Z,36.20
2018-12-30T17:02:49.898Z,41.03
2018-12-30T17:05:19.698Z,41.83
2018-12-30T17:07:49.427Z,42.77
2018-12-30T17:10:19.233Z,45.93
2018-12-30T17:12:49.025Z,33.50
2018-12-30T17:15:18.755Z,32.73
2018-12-30T17:17:48.629Z,64.07
2018-12-30T17:20:18.358Z,83.70
2018-12-30T17:22:48.169Z,41.53
2018-12-30T17:25:17.901Z,31.53
2018-12-30T17:27:47.708Z,37.13
2018-12-30T17:30:17.435Z,42.47
2018-12-30T17:32:47.261Z,39.97
2018-12-30T17:35:17.093Z,42.00
2018-12-30T17:37:46.822Z,42.90
2018-12-30T17:40:16.554Z,46.43
2018-12-30T17:42:46.366Z,44.13
2018-12-30T17:45:16.098Z,50.47
2018-12-30T17:47:45.897Z,48.10
2018-12-30T17:50:15.741Z,52.97
2018-12-30T17:52:45.517Z,173.30
2018-12-30T17:55:15.332Z,88.00
2018-12-30T17:57:45.060Z,42.67
2018-12-30T18:00:14.873Z,40.43
2018-12-30T18:02:44.672Z,36.07
2018-12-30T18:05:14.401Z,33.53
2018-12-30T18:07:44.207Z,35.83
2018-12-30T18:10:13.934Z,32.07
2018-12-30T18:12:43.720Z,36.27
2018-12-30T18:15:13.509Z,36.97
2018-12-30T18:17:43.425Z,32.97
2018-12-30T18:20:13.153Z,32.30
2018-12-30T18:22:42.990Z,34.87
2018-12-30T18:25:12.815Z,39.80
2018-12-30T18:27:42.543Z,33.87
2018-12-30T18:30:12.353Z,33.67
2018-12-30T18:32:42.079Z,40.13
2018-12-30T18:35:11.879Z,43.03
2018-12-30T18:37:41.599Z,44.33
2018-12-30T18:40:12.392Z,39.87
2018-12-30T18:42:42.130Z,38.60
2018-12-30T18:45:11.932Z,41.67
2018-12-30T18:47:41.734Z,43.57
2018-12-30T18:50:11.544Z,35.60
2018-12-30T18:52:41.268Z,36.10
2018-12-30T18:55:11.106Z,31.37
2018-12-30T18:57:40.853Z,34.10
2018-12-30T19:00:11.373Z,32.53
2018-12-30T19:02:41.109Z,35.43
2018-12-30T19:05:10.926Z,31.90
2018-12-30T19:07:40.655Z,33.57
2018-12-30T19:10:10.456Z,29.73
2018-12-30T19:12:40.270Z,26.73
2018-12-30T19:15:10.044Z,26.70
2018-12-30T19:17:39.834Z,31.17
2018-12-30T19:20:09.636Z,27.90
2018-12-30T19:22:39.475Z,30.97
2018-12-30T19:25:09.224Z,33.10
2018-12-30T19:27:39.074Z,41.17
2018-12-30T19:30:10.802Z,43.93
2018-12-30T19:32:40.628Z,41.23
2018-12-30T19:35:10.358Z,36.10
2018-12-30T19:37:40.175Z,39.23
2018-12-30T19:40:11.294Z,42.07
2018-12-30T19:42:41.026Z,40.37
2018-12-30T19:45:10.851Z,42.50
2018-12-30T19:47:40.583Z,40.97
2018-12-30T19:50:10.401Z,43.77
2018-12-30T19:52:40.133Z,48.47
2018-12-30T19:55:09.922Z,47.00
2018-12-30T19:57:39.659Z,52.87
2018-12-30T20:00:11.182Z,49.23
2018-12-30T20:02:40.985Z,47.53
2018-12-30T20:05:10.711Z,53.47
2018-12-30T20:07:40.513Z,39.73
2018-12-30T20:10:10.238Z,39.10
2018-12-30T20:12:40.034Z,48.27
2018-12-30T20:15:09.838Z,51.17
2018-12-30T20:17:39.594Z,47.53
2018-12-30T20:20:09.398Z,32.90
2018-12-30T20:22:39.231Z,26.90
2018-12-30T20:25:09.034Z,32.23
2018-12-30T20:27:38.764Z,37.17
2018-12-30T20:30:09.586Z,40.07
2018-12-30T20:32:39.312Z,48.57
2018-12-30T20:35:09.125Z,39.00
2018-12-30T20:37:38.922Z,44.30
2018-12-30T20:40:08.718Z,47.23
2018-12-30T20:42:38.534Z,48.00
2018-12-30T20:45:08.348Z,44.53
2018-12-30T20:47:38.225Z,45.50
2018-12-30T20:50:07.961Z,52.63
2018-12-30T20:52:37.761Z,84.60
2018-12-30T20:55:07.495Z,147.07
2018-12-30T20:57:37.309Z,164.33
2018-12-30T21:00:08.953Z,103.80
2018-12-30T21:02:38.758Z,104.13
2018-12-30T21:05:08.561Z,76.90
2018-12-30T21:07:38.373Z,76.30
2018-12-30T21:10:08.284Z,64.80
2018-12-30T21:12:38.022Z,56.37
2018-12-30T21:15:07.828Z,57.23
2018-12-30T21:17:37.633Z,55.63
2018-12-30T21:20:07.475Z,55.13
2018-12-30T21:22:37.265Z,54.33
2018-12-30T21:25:08.069Z,42.93
2018-12-30T21:27:37.865Z,36.07
2018-12-30T21:30:08.817Z,36.87
2018-12-30T21:32:38.617Z,52.43
2018-12-30T21:35:08.429Z,54.83
2018-12-30T21:37:38.157Z,65.43
2018-12-30T21:40:07.968Z,54.47
2018-12-30T21:42:43.711Z,43.00
2018-12-30T21:45:10.730Z,31.90
2018-12-30T21:47:40.542Z,28.30
2018-12-30T21:50:11.872Z,27.87
2018-12-30T21:52:41.601Z,26.30
2018-12-30T21:55:11.401Z,25.83
2018-12-30T21:57:41.129Z,24.73
2018-12-30T22:00:10.939Z,23.60
2018-12-30T22:02:40.666Z,29.73
2018-12-30T22:05:10.465Z,27.00
2018-12-30T22:07:41.827Z,31.67
2018-12-30T22:10:17.275Z,33.63
2018-12-30T22:12:43.053Z,32.23
2018-12-30T22:15:12.791Z,31.93
2018-12-30T22:17:42.691Z,27.67
2018-12-30T22:20:12.557Z,30.53
2018-12-30T22:22:43.279Z,25.33
2018-12-30T22:25:14.366Z,25.07
2018-12-30T22:27:44.223Z,40.47
2018-12-30T22:30:14.033Z,32.07
2018-12-30T22:32:43.763Z,26.40
2018-12-30T22:35:13.557Z,29.27
2018-12-30T22:37:43.286Z,28.67
2018-12-30T22:40:13.094Z,26.97
2018-12-30T22:42:42.822Z,20.17
2018-12-30T22:45:14.171Z,17.57
2018-12-30T22:47:43.897Z,17.10
2018-12-30T22:50:13.733Z,18.13
2018-12-30T22:52:43.530Z,20.83
2018-12-30T22:55:13.257Z,18.93
2018-12-30T22:57:43.054Z,18.63
2018-12-30T23:00:14.349Z,14.63
2018-12-30T23:02:44.154Z,13.40
2018-12-30T23:05:14.379Z,13.00
2018-12-30T23:07:44.181Z,11.07
2018-12-30T23:10:14.039Z,12.40
2018-12-30T23:12:43.945Z,13.80
2018-12-30T23:15:13.663Z,15.97
2018-12-30T23:17:43.466Z,17.40
2018-12-30T23:20:13.282Z,20.00
2018-12-30T23:22:43.176Z,17.93
2018-12-30T23:25:13.069Z,24.80
2018-12-30T23:27:42.818Z,22.80
2018-12-30T23:30:12.609Z,18.17
2018-12-30T23:32:42.334Z,19.93
2018-12-30T23:35:12.133Z,24.07
2018-12-30T23:37:41.862Z,25.33
2018-12-30T23:40:11.660Z,18.43
2018-12-30T23:42:41.459Z,12.67
2018-12-30T23:45:11.183Z,13.50
2018-12-30T23:47:40.969Z,15.70
2018-12-30T23:50:10.770Z,30.27
2018-12-30T23:52:40.596Z,29.97
2018-12-30T23:55:10.401Z,31.63
2018-12-30T23:57:40.200Z,32.63
